createdAt,value
2019-05-09T00:01:15.873Z,97808.71
2019-05-09T00:03:45.506Z,97808.89
2019-05-09T00:06:15.019Z,97806.69
2019-05-09T00:08:44.554Z,97802.31
2019-05-09T00:11:14.748Z,97795.88
2019-05-09T00:13:44.711Z,97798.76
2019-05-09T00:16:14.653Z,97792.50
2019-05-09T00:18:44.480Z,97790.16
2019-05-09T00:21:15.503Z,97787.45
2019-05-09T00:23:44.963Z,97789.63
2019-05-09T00:26:14.456Z,97789.63
2019-05-09T00:28:45.512Z,97792.00
2019-05-09T00:31:16.565Z,97783.05
2019-05-09T00:33:48.151Z,97772.25
2019-05-09T00:36:18.338Z,97781.88
2019-05-09T00:38:47.756Z,97780.35
2019-05-09T00:41:17.208Z,97773.95
2019-05-09T00:43:50.898Z,97776.97
2019-05-09T00:46:23.663Z,97776.48
2019-05-09T00:48:54.941Z,97779.00
2019-05-09T00:51:24.608Z,97778.00
2019-05-09T00:53:54.189Z,97780.02
2019-05-09T00:56:24.080Z,97783.90
2019-05-09T00:58:53.933Z,97777.33
2019-05-09T01:01:24.145Z,97779.17
2019-05-09T01:03:54.186Z,97774.77
2019-05-09T01:06:24.156Z,97771.25
2019-05-09T01:08:54.059Z,97769.05
2019-05-09T01:11:24.234Z,97765.84
2019-05-09T01:13:54.674Z,97764.50
2019-05-09T01:16:24.448Z,97766.67
2019-05-09T01:18:54.750Z,97765.84
2019-05-09T01:21:24.337Z,97767.20
2019-05-09T01:23:54.295Z,97762.30
2019-05-09T01:26:24.343Z,97760.95
2019-05-09T01:28:54.389Z,97757.39
2019-05-09T01:31:24.476Z,97748.44
2019-05-09T01:33:58.764Z,97743.57
2019-05-09T01:36:30.030Z,97749.29
2019-05-09T01:38:59.653Z,97748.97
2019-05-09T01:41:33.410Z,97744.06
2019-05-09T01:44:00.482Z,97746.77
2019-05-09T01:46:29.867Z,97749.79
2019-05-09T01:48:59.347Z,97740.02
2019-05-09T01:51:28.926Z,97737.99
2019-05-09T01:53:58.495Z,97735.64
2019-05-09T01:56:27.917Z,97730.03
2019-05-09T01:58:57.618Z,97733.94
2019-05-09T02:01:27.253Z,97727.19
2019-05-09T02:03:58.229Z,97726.34
2019-05-09T02:06:28.373Z,97727.19
2019-05-09T02:08:57.833Z,97724.48
2019-05-09T02:11:39.465Z,97720.09
2019-05-09T02:13:58.560Z,97710.99
2019-05-09T02:16:36.519Z,97714.55
2019-05-09T02:19:13.699Z,97709.78
2019-05-09T02:21:43.817Z,97709.28
2019-05-09T02:24:14.228Z,97702.53
2019-05-09T02:26:44.021Z,97693.94
2019-05-09T02:29:13.961Z,97694.94
2019-05-09T02:31:44.739Z,97695.44
2019-05-09T02:34:15.193Z,97694.26
2019-05-09T02:36:45.066Z,97684.81
2019-05-09T02:39:14.586Z,97690.70
2019-05-09T02:41:59.653Z,97687.51
2019-05-09T02:44:15.393Z,97682.44
2019-05-09T02:46:49.365Z,97678.06
2019-05-09T02:49:19.278Z,97676.36
2019-05-09T02:51:49.018Z,97672.16
2019-05-09T02:54:19.243Z,97666.09
2019-05-09T02:56:49.484Z,97659.48
2019-05-09T02:59:29.679Z,97660.16
2019-05-09T03:02:09.615Z,97661.19
2019-05-09T03:04:39.624Z,97655.79
2019-05-09T03:07:09.897Z,97652.73
2019-05-09T03:09:39.561Z,97657.63
2019-05-09T03:12:22.991Z,97652.41
2019-05-09T03:14:40.267Z,97648.69
2019-05-09T03:17:09.880Z,97640.59
2019-05-09T03:19:39.242Z,97632.66
2019-05-09T03:22:19.265Z,97633.52
2019-05-09T03:24:48.975Z,97633.20
2019-05-09T03:27:20.084Z,97634.37
2019-05-09T03:29:51.189Z,97631.13
2019-05-09T03:32:20.709Z,97623.75
2019-05-09T03:34:50.637Z,97611.92
2019-05-09T03:37:20.533Z,97605.84
2019-05-09T03:39:50.221Z,97607.55
2019-05-09T03:42:23.082Z,97599.95
2019-05-09T03:44:52.042Z,97604.99
2019-05-09T03:47:27.605Z,97597.92
2019-05-09T03:50:17.463Z,97595.55
2019-05-09T03:52:47.892Z,97596.40
2019-05-09T03:55:19.670Z,97583.93
2019-05-09T03:57:51.370Z,97579.88
2019-05-09T04:00:21.887Z,97586.28
2019-05-09T04:02:52.290Z,97584.43
2019-05-09T04:05:22.875Z,97580.03
2019-05-09T04:07:53.590Z,97576.83
2019-05-09T04:10:23.978Z,97568.73
2019-05-09T04:12:57.184Z,97569.09
2019-05-09T04:15:27.512Z,97562.83
2019-05-09T04:17:57.987Z,97552.36
2019-05-09T04:20:28.648Z,97555.73
2019-05-09T04:22:59.545Z,97558.11
2019-05-09T04:25:31.444Z,97557.94
2019-05-09T04:28:03.174Z,97554.38
2019-05-09T04:30:33.768Z,97554.38
2019-05-09T04:33:04.135Z,97552.22
2019-05-09T04:35:34.679Z,97551.86
2019-05-09T04:38:07.343Z,97550.87
2019-05-09T04:40:44.591Z,97545.97
2019-05-09T04:43:15.547Z,97551.86
2019-05-09T04:45:42.766Z,97548.31
2019-05-09T04:48:33.020Z,97531.63
2019-05-09T04:51:07.626Z,97533.47
2019-05-09T04:53:39.775Z,97527.56
2019-05-09T04:56:20.402Z,97511.88
2019-05-09T04:58:50.481Z,97512.41
2019-05-09T05:01:22.190Z,97506.16
2019-05-09T05:03:54.057Z,97497.73
2019-05-09T05:06:24.573Z,97507.01
2019-05-09T05:08:55.113Z,97515.42
2019-05-09T05:11:27.859Z,97508.36
2019-05-09T05:13:58.607Z,97511.55
2019-05-09T05:16:29.284Z,97502.28
2019-05-09T05:18:59.484Z,97500.26
2019-05-09T05:21:29.996Z,97495.19
2019-05-09T05:24:02.321Z,97487.44
2019-05-09T05:26:32.305Z,97488.43
2019-05-09T05:29:03.045Z,97487.08
2019-05-09T05:31:33.162Z,97491.81
2019-05-09T05:34:05.257Z,97494.69
2019-05-09T05:36:44.877Z,97484.07
2019-05-09T05:39:15.082Z,97480.52
2019-05-09T05:41:45.631Z,97483.72
2019-05-09T05:44:17.716Z,97469.06
2019-05-09T05:49:20.015Z,97459.97
2019-05-09T05:51:50.520Z,97460.47
2019-05-09T05:54:21.648Z,97457.45
2019-05-09T05:56:51.792Z,97455.58
2019-05-09T05:59:21.881Z,97448.34
2019-05-09T06:01:51.999Z,97448.84
2019-05-09T06:04:21.813Z,97446.67
2019-05-09T06:06:51.865Z,97439.07
2019-05-09T06:09:22.068Z,97440.25
2019-05-09T06:11:51.872Z,97436.20
2019-05-09T06:14:22.271Z,97431.83
2019-05-09T06:16:52.706Z,97434.00
2019-05-09T06:19:23.136Z,97427.11
2019-05-09T06:21:53.278Z,97427.61
2019-05-09T06:24:23.602Z,97422.53
2019-05-09T06:26:54.063Z,97427.43
2019-05-09T06:29:24.520Z,97424.91
2019-05-09T06:31:58.273Z,97422.89
2019-05-09T06:34:28.197Z,97413.45
2019-05-09T06:36:58.812Z,97411.60
2019-05-09T06:39:30.027Z,97410.57
2019-05-09T06:42:00.250Z,97409.41
2019-05-09T06:44:44.711Z,97405.04
2019-05-09T06:47:19.506Z,97395.91
2019-05-09T06:49:51.341Z,97400.81
2019-05-09T06:52:21.472Z,97391.37
2019-05-09T06:54:51.990Z,97392.22
2019-05-09T06:57:22.677Z,97390.02
2019-05-09T06:59:53.689Z,97384.44
2019-05-09T07:02:31.319Z,97381.92
2019-05-09T07:05:03.108Z,97382.23
2019-05-09T07:07:45.560Z,97377.39
2019-05-09T07:10:14.884Z,97389.00
2019-05-09T07:12:45.123Z,97384.80
2019-05-09T07:15:17.633Z,97392.55
2019-05-09T07:17:48.167Z,97390.88
2019-05-09T07:20:18.613Z,97384.63
2019-05-09T07:22:50.847Z,97374.69
2019-05-09T07:25:22.655Z,97364.39
2019-05-09T07:27:53.732Z,97365.91
2019-05-09T07:30:25.695Z,97373.47
2019-05-09T07:33:14.013Z,97361.70
2019-05-09T07:35:44.301Z,97351.91
2019-05-09T07:38:14.492Z,97339.27
2019-05-09T07:40:44.839Z,97348.86
2019-05-09T07:43:14.588Z,97346.48
2019-05-09T07:46:02.599Z,97344.45
2019-05-09T07:48:32.706Z,97340.08
2019-05-09T07:51:03.546Z,97328.55
2019-05-09T07:53:34.181Z,97338.50
2019-05-09T07:56:04.406Z,97330.53
2019-05-09T07:58:37.510Z,97330.86
2019-05-09T08:01:08.624Z,97320.17
2019-05-09T15:00:51.545Z,97884.74
2019-05-09T15:03:22.178Z,97889.93
2019-05-09T15:05:52.551Z,97894.16
2019-05-09T15:08:22.643Z,97889.91
2019-05-09T15:10:52.934Z,97881.75
2019-05-09T15:13:22.668Z,97903.72
2019-05-09T15:15:53.355Z,97901.16
2019-05-09T15:18:23.874Z,97901.53
2019-05-09T15:20:53.938Z,97895.69
2019-05-09T15:23:24.748Z,97897.81
2019-05-09T15:35:09.055Z,97921.82
2019-05-09T15:37:39.684Z,97929.45
2019-05-09T15:40:10.210Z,97977.41
2019-05-09T15:42:40.845Z,97983.78
2019-05-09T15:45:11.467Z,97985.79
2019-05-09T15:47:41.842Z,97991.48
2019-05-09T15:50:20.080Z,98015.19
2019-05-09T15:52:44.544Z,98001.24
2019-05-09T15:55:17.553Z,97994.09
2019-05-09T15:57:48.573Z,98016.16
2019-05-09T16:00:19.344Z,98020.87
2019-05-09T16:02:49.982Z,98017.78
2019-05-09T16:05:20.494Z,98029.38
2019-05-09T16:07:50.660Z,98016.63
2019-05-09T16:10:21.098Z,98030.05
2019-05-09T16:12:53.908Z,98039.97
2019-05-09T16:15:24.383Z,98040.04
2019-05-09T16:17:54.740Z,98034.80
2019-05-09T16:20:36.848Z,98050.54
2019-05-09T16:22:57.395Z,98049.55
2019-05-09T16:25:28.269Z,98046.48
2019-05-09T16:27:58.812Z,98050.09
2019-05-09T16:41:09.008Z,98066.84
2019-05-09T16:43:39.694Z,98065.84
2019-05-09T16:46:10.529Z,98075.55
2019-05-09T16:48:40.707Z,98068.94
2019-05-09T16:51:11.225Z,98069.32
2019-05-09T16:53:41.692Z,98075.98
2019-05-09T16:56:11.757Z,98078.23
2019-05-09T16:58:42.420Z,98071.19
2019-05-09T17:01:12.568Z,98078.85
2019-05-09T17:03:42.896Z,98084.59
2019-05-09T17:06:13.023Z,98088.71
2019-05-09T17:08:43.192Z,98099.44
2019-05-09T17:11:13.758Z,98106.24
2019-05-09T17:13:44.349Z,98111.13
2019-05-09T17:16:14.829Z,98108.09
2019-05-09T17:18:45.018Z,98106.72
2019-05-09T17:21:28.527Z,98106.20
2019-05-09T17:24:48.357Z,98110.30
2019-05-09T17:27:19.097Z,98114.30
2019-05-09T17:29:49.711Z,98106.91
2019-05-09T17:32:20.398Z,98112.27
2019-05-09T17:34:50.812Z,98121.67
2019-05-09T17:37:21.529Z,98123.91
2019-05-09T17:39:51.834Z,98120.61
2019-05-09T17:42:22.159Z,98126.95
2019-05-09T17:44:52.639Z,98138.18
2019-05-09T17:47:23.230Z,98142.33
2019-05-09T17:49:53.231Z,98147.23
2019-05-09T17:52:23.185Z,98154.30
2019-05-09T17:54:53.186Z,98152.69
2019-05-09T17:57:23.281Z,98152.34
2019-05-09T17:59:53.527Z,98163.33
2019-05-09T18:02:23.918Z,98167.55
2019-05-09T18:04:54.609Z,98164.66
2019-05-09T18:07:24.966Z,98171.70
2019-05-09T18:09:57.893Z,98180.87
2019-05-09T18:12:27.830Z,98177.95
2019-05-09T18:14:58.346Z,98185.88
2019-05-09T18:17:28.798Z,98194.52
2019-05-09T18:19:59.212Z,98190.03
2019-05-09T18:22:29.647Z,98203.67
2019-05-09T18:24:59.961Z,98206.48
2019-05-09T18:27:30.078Z,98201.47
2019-05-09T18:30:00.255Z,98203.67
2019-05-09T18:32:48.228Z,98205.13
2019-05-09T18:35:22.850Z,98208.05
2019-05-09T18:37:53.027Z,98214.73
2019-05-09T18:40:23.166Z,98214.86
2019-05-09T18:42:53.068Z,98217.79
2019-05-09T18:45:23.225Z,98227.98
2019-05-09T18:47:53.332Z,98228.85
2019-05-09T18:50:23.244Z,98234.09
2019-05-09T18:52:53.230Z,98236.16
2019-05-09T18:55:23.219Z,98242.23
2019-05-09T18:57:53.256Z,98248.80
2019-05-09T19:00:24.377Z,98254.75
2019-05-09T19:02:54.366Z,98247.81
2019-05-09T19:05:24.462Z,98251.47
2019-05-09T19:07:54.453Z,98256.57
2019-05-09T19:10:24.562Z,98252.94
2019-05-09T19:12:54.699Z,98254.75
2019-05-09T19:15:26.524Z,98257.30
2019-05-09T19:18:10.042Z,98259.94
2019-05-09T19:20:39.449Z,98270.25
2019-05-09T19:23:09.212Z,98277.45
2019-05-09T19:25:38.739Z,98288.23
2019-05-09T19:28:08.631Z,98282.40
2019-05-09T19:30:38.235Z,98301.73
2019-05-09T19:33:07.767Z,98295.91
2019-05-09T19:35:37.229Z,98302.45
2019-05-09T19:38:06.941Z,98314.02
2019-05-09T19:40:36.445Z,98309.39
2019-05-09T19:43:05.912Z,98310.47
2019-05-09T19:45:35.460Z,98313.98
2019-05-09T19:48:04.987Z,98332.44
2019-05-09T19:50:34.534Z,98326.00
2019-05-09T19:53:04.024Z,98323.42
2019-05-09T19:55:33.544Z,98342.52
2019-05-09T19:58:02.955Z,98341.91
2019-05-09T20:00:32.368Z,98340.64
2019-05-09T20:03:01.799Z,98343.22
2019-05-09T20:05:31.319Z,98348.30
2019-05-09T20:08:00.789Z,98361.55
2019-05-09T20:10:30.105Z,98366.75
2019-05-09T20:13:20.776Z,98368.33
2019-05-09T20:15:50.239Z,98364.91
2019-05-09T20:18:19.689Z,98369.99
2019-05-09T20:20:49.230Z,98378.28
2019-05-09T20:23:18.660Z,98376.34
2019-05-09T20:25:48.205Z,98385.55
2019-05-09T20:28:17.596Z,98385.26
2019-05-09T20:30:47.295Z,98392.17
2019-05-09T20:33:16.973Z,98396.90
2019-05-09T20:35:46.468Z,98405.71
2019-05-09T20:38:16.267Z,98419.45
2019-05-09T20:40:47.539Z,98414.47
2019-05-09T20:43:17.190Z,98417.53
2019-05-09T20:45:46.872Z,98432.82
2019-05-09T20:48:16.407Z,98424.06
2019-05-09T20:50:46.154Z,98435.02
2019-05-09T20:53:15.696Z,98423.47
2019-05-09T20:55:45.201Z,98437.42
2019-05-09T20:58:14.834Z,98436.67
2019-05-09T21:00:44.433Z,98439.34
2019-05-09T21:03:14.067Z,98434.00
2019-05-09T21:05:43.674Z,98435.19
2019-05-09T21:08:13.306Z,98435.89
2019-05-09T21:10:43.005Z,98439.27
2019-05-09T21:13:12.561Z,98427.80
2019-05-09T21:15:42.253Z,98442.45
2019-05-09T21:18:12.178Z,98437.38
2019-05-09T21:20:41.841Z,98447.27
2019-05-09T21:23:23.845Z,98446.63
2019-05-09T21:25:43.379Z,98448.27
2019-05-09T21:28:14.601Z,98440.09
2019-05-09T21:30:45.164Z,98443.63
2019-05-09T21:33:14.721Z,98448.22
2019-05-09T21:35:44.379Z,98447.42
2019-05-09T21:38:13.883Z,98450.09
2019-05-09T21:40:43.854Z,98456.65
2019-05-09T21:43:13.317Z,98452.22
2019-05-09T21:45:43.049Z,98447.05
2019-05-09T21:48:12.399Z,98463.98
2019-05-09T21:50:41.759Z,98461.95
2019-05-09T21:53:11.278Z,98456.38
2019-05-09T21:55:40.802Z,98465.53
2019-05-09T21:58:10.206Z,98463.10
2019-05-09T22:00:40.469Z,98461.69
2019-05-09T22:03:10.471Z,98465.69
2019-05-09T22:05:39.926Z,98463.96
2019-05-09T22:08:09.366Z,98465.02
2019-05-09T22:10:38.818Z,98465.72
2019-05-09T22:13:08.391Z,98472.62
2019-05-09T22:15:37.828Z,98469.91
2019-05-09T22:18:07.375Z,98474.22
2019-05-09T22:20:36.796Z,98468.35
2019-05-09T22:23:06.724Z,98479.34
2019-05-09T22:25:36.414Z,98479.92
2019-05-09T22:28:05.958Z,98483.17
2019-05-09T22:30:35.576Z,98487.77
2019-05-09T22:33:05.046Z,98488.27
2019-05-09T22:35:34.565Z,98484.73
2019-05-09T22:38:04.023Z,98488.84
2019-05-09T22:40:33.440Z,98489.31
2019-05-09T22:43:02.912Z,98490.77
2019-05-09T22:45:32.318Z,98489.31
2019-05-09T22:48:01.707Z,98492.21
2019-05-09T22:50:31.268Z,98492.98
2019-05-09T22:53:00.758Z,98495.88
2019-05-09T22:55:30.183Z,98503.12
2019-05-09T22:57:59.634Z,98507.50
2019-05-09T23:00:28.997Z,98512.19
2019-05-09T23:02:58.399Z,98521.14
2019-05-09T23:05:27.971Z,98522.11
2019-05-09T23:07:57.471Z,98520.66
2019-05-09T23:10:26.843Z,98522.64
2019-05-09T23:12:56.215Z,98522.17
2019-05-09T23:15:25.649Z,98525.48
2019-05-09T23:17:55.079Z,98526.93
2019-05-09T23:20:42.144Z,98513.69
2019-05-09T23:23:29.172Z,98528.83
2019-05-09T23:25:59.050Z,98522.27
2019-05-09T23:28:28.855Z,98523.80
2019-05-09T23:31:02.714Z,98526.28
2019-05-09T23:33:33.901Z,98531.52
2019-05-09T23:36:03.496Z,98538.01
2019-05-09T23:38:32.913Z,98527.34
2019-05-09T23:41:02.274Z,98533.83
2019-05-09T23:43:31.719Z,98527.74
2019-05-09T23:46:01.385Z,98529.87
2019-05-09T23:48:30.779Z,98531.56
2019-05-09T23:51:00.472Z,98532.83
2019-05-09T23:53:32.896Z,98534.95
2019-05-09T23:56:20.087Z,98536.97
2019-05-09T23:59:06.762Z,98536.69
